sensor_id;sensor_type;location;lat;lon;timestamp;P1;durP1;ratioP1;P2;durP2;ratioP2
40939;SDS011;26666;50.156;7.700;2023-05-14T00:01:28;1.98;;;1.25;;
40939;SDS011;26666;50.156;7.700;2023-05-14T00:06:31;3.25;;;1.08;;
40939;SDS011;26666;50.156;7.700;2023-05-14T00:11:33;4.32;;;1.52;;
40939;SDS011;26666;50.156;7.700;2023-05-14T00:16:34;2.33;;;1.30;;
40939;SDS011;26666;50.156;7.700;2023-05-14T00:21:37;1.42;;;0.88;;
40939;SDS011;26666;50.156;7.700;2023-05-14T00:26:39;6.07;;;1.58;;
40939;SDS011;26666;50.156;7.700;2023-05-14T00:31:41;5.75;;;1.35;;
40939;SDS011;26666;50.156;7.700;2023-05-14T00:36:44;4.80;;;1.70;;
40939;SDS011;26666;50.156;7.700;2023-05-14T00:41:45;3.85;;;1.40;;
40939;SDS011;26666;50.156;7.700;2023-05-14T00:46:47;3.50;;;1.27;;
40939;SDS011;26666;50.156;7.700;2023-05-14T00:51:51;0.75;;;0.75;;
40939;SDS011;26666;50.156;7.700;2023-05-14T00:56:53;1.55;;;0.93;;
40939;SDS011;26666;50.156;7.700;2023-05-14T01:01:56;2.90;;;1.20;;
40939;SDS011;26666;50.156;7.700;2023-05-14T01:07:02;7.47;;;1.10;;
40939;SDS011;26666;50.156;7.700;2023-05-14T01:12:14;2.75;;;1.05;;
40939;SDS011;26666;50.156;7.700;2023-05-14T01:17:21;3.85;;;0.77;;
40939;SDS011;26666;50.156;7.700;2023-05-14T01:22:26;3.95;;;1.48;;
40939;SDS011;26666;50.156;7.700;2023-05-14T01:27:29;2.72;;;1.27;;
40939;SDS011;26666;50.156;7.700;2023-05-14T01:32:36;1.38;;;1.00;;
40939;SDS011;26666;50.156;7.700;2023-05-14T01:37:41;8.75;;;2.20;;
40939;SDS011;26666;50.156;7.700;2023-05-14T01:42:44;1.90;;;1.10;;
40939;SDS011;26666;50.156;7.700;2023-05-14T01:47:46;2.53;;;1.63;;
40939;SDS011;26666;50.156;7.700;2023-05-14T01:52:49;4.45;;;1.13;;
40939;SDS011;26666;50.156;7.700;2023-05-14T01:57:51;1.88;;;1.00;;
40939;SDS011;26666;50.156;7.700;2023-05-14T02:02:53;1.45;;;1.05;;
40939;SDS011;26666;50.156;7.700;2023-05-14T02:07:56;3.60;;;0.73;;
40939;SDS011;26666;50.156;7.700;2023-05-14T02:12:58;3.40;;;1.10;;
40939;SDS011;26666;50.156;7.700;2023-05-14T02:18:01;0.85;;;0.60;;
40939;SDS011;26666;50.156;7.700;2023-05-14T02:23:04;8.38;;;1.48;;
40939;SDS011;26666;50.156;7.700;2023-05-14T02:28:06;1.45;;;1.17;;
40939;SDS011;26666;50.156;7.700;2023-05-14T02:33:07;12.05;;;1.63;;
40939;SDS011;26666;50.156;7.700;2023-05-14T02:38:12;9.60;;;1.70;;
40939;SDS011;26666;50.156;7.700;2023-05-14T02:43:18;3.65;;;1.75;;
40939;SDS011;26666;50.156;7.700;2023-05-14T02:48:27;5.18;;;1.98;;
40939;SDS011;26666;50.156;7.700;2023-05-14T02:53:33;1.60;;;1.42;;
40939;SDS011;26666;50.156;7.700;2023-05-14T02:58:38;6.68;;;1.73;;
40939;SDS011;26666;50.156;7.700;2023-05-14T03:03:40;1.13;;;0.90;;
40939;SDS011;26666;50.156;7.700;2023-05-14T03:08:43;2.83;;;0.60;;
40939;SDS011;26666;50.156;7.700;2023-05-14T03:13:46;2.75;;;1.30;;
40939;SDS011;26666;50.156;7.700;2023-05-14T03:18:47;2.15;;;1.13;;
40939;SDS011;26666;50.156;7.700;2023-05-14T03:23:51;2.80;;;1.55;;
40939;SDS011;26666;50.156;7.700;2023-05-14T03:28:52;1.30;;;0.57;;
40939;SDS011;26666;50.156;7.700;2023-05-14T03:34:00;1.45;;;0.80;;
40939;SDS011;26666;50.156;7.700;2023-05-14T03:39:04;1.17;;;0.85;;
40939;SDS011;26666;50.156;7.700;2023-05-14T03:44:06;1.85;;;1.15;;
40939;SDS011;26666;50.156;7.700;2023-05-14T03:49:07;11.73;;;1.58;;
40939;SDS011;26666;50.156;7.700;2023-05-14T03:54:10;4.30;;;1.50;;
40939;SDS011;26666;50.156;7.700;2023-05-14T03:59:22;1.90;;;1.00;;
40939;SDS011;26666;50.156;7.700;2023-05-14T04:04:24;5.82;;;1.20;;
40939;SDS011;26666;50.156;7.700;2023-05-14T04:09:27;1.77;;;1.25;;
40939;SDS011;26666;50.156;7.700;2023-05-14T04:14:28;0.88;;;0.88;;
40939;SDS011;26666;50.156;7.700;2023-05-14T04:19:30;0.55;;;0.55;;
40939;SDS011;26666;50.156;7.700;2023-05-14T04:24:45;1.15;;;0.80;;
40939;SDS011;26666;50.156;7.700;2023-05-14T04:29:46;1.58;;;1.40;;
40939;SDS011;26666;50.156;7.700;2023-05-14T04:34:48;0.80;;;0.80;;
40939;SDS011;26666;50.156;7.700;2023-05-14T04:39:52;1.05;;;0.95;;
40939;SDS011;26666;50.156;7.700;2023-05-14T04:45:01;2.28;;;1.38;;
40939;SDS011;26666;50.156;7.700;2023-05-14T04:50:02;4.18;;;1.17;;
40939;SDS011;26666;50.156;7.700;2023-05-14T04:55:07;3.33;;;2.20;;
40939;SDS011;26666;50.156;7.700;2023-05-14T05:00:10;4.82;;;1.80;;
40939;SDS011;26666;50.156;7.700;2023-05-14T05:05:12;7.55;;;2.13;;
40939;SDS011;26666;50.156;7.700;2023-05-14T05:10:15;5.43;;;2.47;;
40939;SDS011;26666;50.156;7.700;2023-05-14T05:15:17;7.15;;;1.98;;
40939;SDS011;26666;50.156;7.700;2023-05-14T05:20:19;2.38;;;1.48;;
40939;SDS011;26666;50.156;7.700;2023-05-14T05:25:22;6.10;;;1.60;;
40939;SDS011;26666;50.156;7.700;2023-05-14T05:30:24;11.93;;;1.75;;
40939;SDS011;26666;50.156;7.700;2023-05-14T05:35:26;2.53;;;1.27;;
40939;SDS011;26666;50.156;7.700;2023-05-14T05:40:29;5.97;;;1.45;;
40939;SDS011;26666;50.156;7.700;2023-05-14T05:45:31;2.78;;;1.73;;
40939;SDS011;26666;50.156;7.700;2023-05-14T05:50:33;2.33;;;1.30;;
40939;SDS011;26666;50.156;7.700;2023-05-14T05:55:36;2.20;;;1.27;;
40939;SDS011;26666;50.156;7.700;2023-05-14T06:00:37;4.15;;;1.60;;
40939;SDS011;26666;50.156;7.700;2023-05-14T06:05:39;4.38;;;2.03;;
40939;SDS011;26666;50.156;7.700;2023-05-14T06:10:42;2.92;;;1.70;;
40939;SDS011;26666;50.156;7.700;2023-05-14T06:15:46;3.05;;;1.83;;
40939;SDS011;26666;50.156;7.700;2023-05-14T06:20:48;2.45;;;1.35;;
40939;SDS011;26666;50.156;7.700;2023-05-14T06:25:52;2.78;;;1.50;;
40939;SDS011;26666;50.156;7.700;2023-05-14T06:30:54;2.90;;;2.13;;
40939;SDS011;26666;50.156;7.700;2023-05-14T06:35:55;3.58;;;2.00;;
40939;SDS011;26666;50.156;7.700;2023-05-14T06:41:00;1.92;;;1.67;;
40939;SDS011;26666;50.156;7.700;2023-05-14T06:46:01;3.40;;;1.98;;
40939;SDS011;26666;50.156;7.700;2023-05-14T06:51:03;2.67;;;1.48;;
40939;SDS011;26666;50.156;7.700;2023-05-14T06:56:13;5.05;;;1.75;;
40939;SDS011;26666;50.156;7.700;2023-05-14T07:01:15;6.70;;;1.40;;
40939;SDS011;26666;50.156;7.700;2023-05-14T07:06:17;1.70;;;1.60;;
40939;SDS011;26666;50.156;7.700;2023-05-14T07:11:20;2.72;;;1.38;;
40939;SDS011;26666;50.156;7.700;2023-05-14T07:16:24;2.13;;;1.00;;
40939;SDS011;26666;50.156;7.700;2023-05-14T07:21:26;3.60;;;0.93;;
40939;SDS011;26666;50.156;7.700;2023-05-14T07:26:29;1.90;;;1.25;;
40939;SDS011;26666;50.156;7.700;2023-05-14T07:31:31;1.08;;;0.68;;
40939;SDS011;26666;50.156;7.700;2023-05-14T07:36:33;1.30;;;0.88;;
40939;SDS011;26666;50.156;7.700;2023-05-14T07:41:36;0.55;;;0.50;;
40939;SDS011;26666;50.156;7.700;2023-05-14T07:46:38;1.65;;;0.40;;
40939;SDS011;26666;50.156;7.700;2023-05-14T07:51:39;0.63;;;0.55;;
40939;SDS011;26666;50.156;7.700;2023-05-14T07:56:42;0.93;;;0.75;;
40939;SDS011;26666;50.156;7.700;2023-05-14T08:01:44;1.00;;;0.88;;
40939;SDS011;26666;50.156;7.700;2023-05-14T08:06:46;1.38;;;0.65;;
40939;SDS011;26666;50.156;7.700;2023-05-14T08:11:49;3.75;;;1.33;;
40939;SDS011;26666;50.156;7.700;2023-05-14T08:16:50;4.70;;;1.70;;
40939;SDS011;26666;50.156;7.700;2023-05-14T08:21:52;3.15;;;1.95;;
40939;SDS011;26666;50.156;7.700;2023-05-14T08:26:56;3.22;;;2.10;;
40939;SDS011;26666;50.156;7.700;2023-05-14T08:31:57;3.55;;;2.10;;
40939;SDS011;26666;50.156;7.700;2023-05-14T08:37:04;11.10;;;2.08;;
40939;SDS011;26666;50.156;7.700;2023-05-14T08:42:07;3.63;;;2.10;;
40939;SDS011;26666;50.156;7.700;2023-05-14T08:47:11;1.90;;;1.50;;
40939;SDS011;26666;50.156;7.700;2023-05-14T08:52:15;1.90;;;1.50;;
40939;SDS011;26666;50.156;7.700;2023-05-14T08:57:21;2.55;;;1.15;;
40939;SDS011;26666;50.156;7.700;2023-05-14T09:02:26;2.10;;;1.50;;
40939;SDS011;26666;50.156;7.700;2023-05-14T09:07:30;1.05;;;1.05;;
40939;SDS011;26666;50.156;7.700;2023-05-14T09:12:33;15.02;;;2.83;;
40939;SDS011;26666;50.156;7.700;2023-05-14T09:17:35;1.52;;;1.13;;
40939;SDS011;26666;50.156;7.700;2023-05-14T09:22:37;4.22;;;1.02;;
40939;SDS011;26666;50.156;7.700;2023-05-14T09:27:41;1.25;;;1.02;;
40939;SDS011;26666;50.156;7.700;2023-05-14T09:32:47;1.02;;;0.70;;
40939;SDS011;26666;50.156;7.700;2023-05-14T09:37:49;4.03;;;0.50;;
40939;SDS011;26666;50.156;7.700;2023-05-14T09:42:54;2.65;;;0.65;;
40939;SDS011;26666;50.156;7.700;2023-05-14T09:48:11;0.70;;;0.40;;
40939;SDS011;26666;50.156;7.700;2023-05-14T09:53:13;1.75;;;1.42;;
40939;SDS011;26666;50.156;7.700;2023-05-14T09:58:28;0.73;;;0.40;;
40939;SDS011;26666;50.156;7.700;2023-05-14T10:03:34;0.52;;;0.52;;
40939;SDS011;26666;50.156;7.700;2023-05-14T10:08:37;0.43;;;0.33;;
40939;SDS011;26666;50.156;7.700;2023-05-14T10:13:45;11.50;;;0.57;;
40939;SDS011;26666;50.156;7.700;2023-05-14T10:19:07;1.85;;;0.88;;
40939;SDS011;26666;50.156;7.700;2023-05-14T10:24:12;0.82;;;0.82;;
40939;SDS011;26666;50.156;7.700;2023-05-14T10:29:46;1.60;;;0.28;;
40939;SDS011;26666;50.156;7.700;2023-05-14T10:35:16;1.08;;;0.40;;
40939;SDS011;26666;50.156;7.700;2023-05-14T10:40:30;0.38;;;0.20;;
40939;SDS011;26666;50.156;7.700;2023-05-14T10:45:49;0.52;;;0.30;;
40939;SDS011;26666;50.156;7.700;2023-05-14T10:50:52;0.40;;;0.40;;
40939;SDS011;26666;50.156;7.700;2023-05-14T10:56:10;0.73;;;0.38;;
40939;SDS011;26666;50.156;7.700;2023-05-14T11:01:34;1.95;;;0.35;;
40939;SDS011;26666;50.156;7.700;2023-05-14T11:06:52;2.95;;;0.55;;
40939;SDS011;26666;50.156;7.700;2023-05-14T11:11:59;0.40;;;0.40;;
40939;SDS011;26666;50.156;7.700;2023-05-14T11:17:34;0.30;;;0.20;;
40939;SDS011;26666;50.156;7.700;2023-05-14T11:23:08;0.57;;;0.20;;
40939;SDS011;26666;50.156;7.700;2023-05-14T11:28:42;9.98;;;1.40;;
40939;SDS011;26666;50.156;7.700;2023-05-14T11:34:38;0.40;;;0.40;;
40939;SDS011;26666;50.156;7.700;2023-05-14T11:39:50;0.30;;;0.30;;
40939;SDS011;26666;50.156;7.700;2023-05-14T11:44:56;0.57;;;0.20;;
40939;SDS011;26666;50.156;7.700;2023-05-14T11:50:05;3.20;;;0.32;;
40939;SDS011;26666;50.156;7.700;2023-05-14T11:55:13;2.35;;;0.52;;
40939;SDS011;26666;50.156;7.700;2023-05-14T12:00:16;1.40;;;0.57;;
40939;SDS011;26666;50.156;7.700;2023-05-14T12:11:57;0.30;;;0.30;;
40939;SDS011;26666;50.156;7.700;2023-05-14T12:36:54;0.85;;;0.20;;
40939;SDS011;26666;50.156;7.700;2023-05-14T12:42:16;0.45;;;0.28;;
40939;SDS011;26666;50.156;7.700;2023-05-14T12:47:20;0.10;;;0.10;;
40939;SDS011;26666;50.156;7.700;2023-05-14T12:52:23;0.32;;;0.30;;
40939;SDS011;26666;50.156;7.700;2023-05-14T12:57:39;0.20;;;0.20;;
40939;SDS011;26666;50.156;7.700;2023-05-14T13:02:43;0.70;;;0.30;;
40939;SDS011;26666;50.156;7.700;2023-05-14T13:07:50;0.47;;;0.35;;
40939;SDS011;26666;50.156;7.700;2023-05-14T13:13:14;0.52;;;0.38;;
40939;SDS011;26666;50.156;7.700;2023-05-14T13:18:26;1.17;;;0.52;;
40939;SDS011;26666;50.156;7.700;2023-05-14T13:23:33;0.30;;;0.30;;
40939;SDS011;26666;50.156;7.700;2023-05-14T13:28:36;2.25;;;0.52;;
40939;SDS011;26666;50.156;7.700;2023-05-14T13:39:16;0.40;;;0.40;;
40939;SDS011;26666;50.156;7.700;2023-05-14T13:44:31;0.52;;;0.30;;
40939;SDS011;26666;50.156;7.700;2023-05-14T13:55:21;1.75;;;0.60;;
40939;SDS011;26666;50.156;7.700;2023-05-14T14:00:42;0.35;;;0.35;;
40939;SDS011;26666;50.156;7.700;2023-05-14T14:24:20;0.35;;;0.35;;
40939;SDS011;26666;50.156;7.700;2023-05-14T14:29:29;0.82;;;0.20;;
40939;SDS011;26666;50.156;7.700;2023-05-14T14:41:35;1.33;;;0.55;;
40939;SDS011;26666;50.156;7.700;2023-05-14T14:46:37;0.40;;;0.20;;
40939;SDS011;26666;50.156;7.700;2023-05-14T14:51:38;1.60;;;0.90;;
40939;SDS011;26666;50.156;7.700;2023-05-14T14:56:41;0.17;;;0.10;;
40939;SDS011;26666;50.156;7.700;2023-05-14T15:01:43;0.10;;;0.10;;
40939;SDS011;26666;50.156;7.700;2023-05-14T15:06:45;8.40;;;0.10;;
40939;SDS011;26666;50.156;7.700;2023-05-14T15:11:48;0.10;;;0.10;;
40939;SDS011;26666;50.156;7.700;2023-05-14T15:16:50;0.43;;;0.15;;
40939;SDS011;26666;50.156;7.700;2023-05-14T15:21:52;0.10;;;0.10;;
40939;SDS011;26666;50.156;7.700;2023-05-14T15:26:55;1.23;;;0.20;;
40939;SDS011;26666;50.156;7.700;2023-05-14T15:31:57;0.22;;;0.15;;
40939;SDS011;26666;50.156;7.700;2023-05-14T15:36:58;1.65;;;0.10;;
40939;SDS011;26666;50.156;7.700;2023-05-14T15:42:02;0.65;;;0.55;;
40939;SDS011;26666;50.156;7.700;2023-05-14T15:47:04;1.60;;;0.28;;
40939;SDS011;26666;50.156;7.700;2023-05-14T15:52:06;0.45;;;0.30;;
40939;SDS011;26666;50.156;7.700;2023-05-14T15:57:09;1.00;;;0.30;;
40939;SDS011;26666;50.156;7.700;2023-05-14T16:02:11;0.73;;;0.40;;
40939;SDS011;26666;50.156;7.700;2023-05-14T16:07:13;0.30;;;0.30;;
40939;SDS011;26666;50.156;7.700;2023-05-14T16:12:17;0.28;;;0.28;;
40939;SDS011;26666;50.156;7.700;2023-05-14T16:17:19;3.13;;;0.70;;
40939;SDS011;26666;50.156;7.700;2023-05-14T16:22:20;3.17;;;0.40;;
40939;SDS011;26666;50.156;7.700;2023-05-14T16:27:23;1.05;;;0.30;;
40939;SDS011;26666;50.156;7.700;2023-05-14T16:37:59;0.13;;;0.13;;
40939;SDS011;26666;50.156;7.700;2023-05-14T16:43:02;0.32;;;0.30;;
40939;SDS011;26666;50.156;7.700;2023-05-14T16:48:04;0.35;;;0.20;;
40939;SDS011;26666;50.156;7.700;2023-05-14T16:53:06;0.43;;;0.32;;
40939;SDS011;26666;50.156;7.700;2023-05-14T16:58:10;1.98;;;0.30;;
40939;SDS011;26666;50.156;7.700;2023-05-14T17:03:11;5.05;;;0.28;;
40939;SDS011;26666;50.156;7.700;2023-05-14T17:08:13;0.32;;;0.25;;
40939;SDS011;26666;50.156;7.700;2023-05-14T17:13:16;0.50;;;0.30;;
40939;SDS011;26666;50.156;7.700;2023-05-14T17:18:18;0.73;;;0.68;;
40939;SDS011;26666;50.156;7.700;2023-05-14T17:23:19;1.05;;;0.25;;
40939;SDS011;26666;50.156;7.700;2023-05-14T17:28:23;6.00;;;0.40;;
40939;SDS011;26666;50.156;7.700;2023-05-14T17:33:26;0.20;;;0.20;;
40939;SDS011;26666;50.156;7.700;2023-05-14T17:38:28;0.98;;;0.40;;
40939;SDS011;26666;50.156;7.700;2023-05-14T17:43:31;1.42;;;0.40;;
40939;SDS011;26666;50.156;7.700;2023-05-14T17:48:33;1.52;;;0.22;;
40939;SDS011;26666;50.156;7.700;2023-05-14T17:53:35;2.63;;;0.82;;
40939;SDS011;26666;50.156;7.700;2023-05-14T17:58:38;0.40;;;0.20;;
40939;SDS011;26666;50.156;7.700;2023-05-14T18:03:39;0.25;;;0.20;;
40939;SDS011;26666;50.156;7.700;2023-05-14T18:08:41;0.30;;;0.25;;
40939;SDS011;26666;50.156;7.700;2023-05-14T18:13:44;1.35;;;0.30;;
40939;SDS011;26666;50.156;7.700;2023-05-14T18:18:46;0.35;;;0.30;;
40939;SDS011;26666;50.156;7.700;2023-05-14T18:23:48;3.00;;;0.95;;
40939;SDS011;26666;50.156;7.700;2023-05-14T18:28:51;0.30;;;0.30;;
40939;SDS011;26666;50.156;7.700;2023-05-14T18:33:53;2.35;;;0.25;;
40939;SDS011;26666;50.156;7.700;2023-05-14T18:38:54;0.40;;;0.32;;
40939;SDS011;26666;50.156;7.700;2023-05-14T18:43:57;0.73;;;0.30;;
40939;SDS011;26666;50.156;7.700;2023-05-14T18:48:59;0.35;;;0.20;;
40939;SDS011;26666;50.156;7.700;2023-05-14T18:54:01;4.68;;;0.85;;
40939;SDS011;26666;50.156;7.700;2023-05-14T18:59:04;1.02;;;0.30;;
40939;SDS011;26666;50.156;7.700;2023-05-14T19:04:06;2.17;;;0.30;;
40939;SDS011;26666;50.156;7.700;2023-05-14T19:09:08;3.53;;;0.40;;
40939;SDS011;26666;50.156;7.700;2023-05-14T19:14:11;0.95;;;0.50;;
40939;SDS011;26666;50.156;7.700;2023-05-14T19:19:12;0.57;;;0.40;;
40939;SDS011;26666;50.156;7.700;2023-05-14T19:24:14;11.48;;;1.75;;
40939;SDS011;26666;50.156;7.700;2023-05-14T19:29:17;0.85;;;0.40;;
40939;SDS011;26666;50.156;7.700;2023-05-14T19:34:19;1.27;;;0.60;;
40939;SDS011;26666;50.156;7.700;2023-05-14T19:39:21;4.25;;;1.13;;
40939;SDS011;26666;50.156;7.700;2023-05-14T19:44:24;0.73;;;0.38;;
40939;SDS011;26666;50.156;7.700;2023-05-14T19:49:26;1.15;;;0.45;;
40939;SDS011;26666;50.156;7.700;2023-05-14T19:54:27;2.13;;;0.70;;
40939;SDS011;26666;50.156;7.700;2023-05-14T19:59:30;0.82;;;0.70;;
40939;SDS011;26666;50.156;7.700;2023-05-14T20:04:32;0.38;;;0.30;;
40939;SDS011;26666;50.156;7.700;2023-05-14T20:09:34;1.67;;;0.35;;
40939;SDS011;26666;50.156;7.700;2023-05-14T20:14:37;0.63;;;0.60;;
40939;SDS011;26666;50.156;7.700;2023-05-14T20:19:38;0.52;;;0.40;;
40939;SDS011;26666;50.156;7.700;2023-05-14T20:24:40;0.55;;;0.32;;
40939;SDS011;26666;50.156;7.700;2023-05-14T20:29:43;1.33;;;0.45;;
40939;SDS011;26666;50.156;7.700;2023-05-14T20:34:45;0.50;;;0.50;;
40939;SDS011;26666;50.156;7.700;2023-05-14T20:39:46;0.65;;;0.40;;
40939;SDS011;26666;50.156;7.700;2023-05-14T20:44:50;0.65;;;0.30;;
40939;SDS011;26666;50.156;7.700;2023-05-14T20:49:52;2.72;;;0.65;;
40939;SDS011;26666;50.156;7.700;2023-05-14T20:54:54;1.25;;;0.50;;
40939;SDS011;26666;50.156;7.700;2023-05-14T20:59:57;0.68;;;0.50;;
40939;SDS011;26666;50.156;7.700;2023-05-14T21:04:59;4.43;;;0.57;;
40939;SDS011;26666;50.156;7.700;2023-05-14T21:10:01;1.88;;;0.57;;
40939;SDS011;26666;50.156;7.700;2023-05-14T21:15:04;1.63;;;0.88;;
40939;SDS011;26666;50.156;7.700;2023-05-14T21:20:07;0.73;;;0.35;;
40939;SDS011;26666;50.156;7.700;2023-05-14T21:25:09;7.53;;;0.77;;
40939;SDS011;26666;50.156;7.700;2023-05-14T21:30:13;0.40;;;0.40;;
40939;SDS011;26666;50.156;7.700;2023-05-14T21:35:15;1.48;;;0.30;;
40939;SDS011;26666;50.156;7.700;2023-05-14T21:40:17;0.88;;;0.70;;
40939;SDS011;26666;50.156;7.700;2023-05-14T21:45:20;1.10;;;0.82;;
40939;SDS011;26666;50.156;7.700;2023-05-14T21:50:24;0.90;;;0.40;;
40939;SDS011;26666;50.156;7.700;2023-05-14T21:55:26;0.43;;;0.43;;
40939;SDS011;26666;50.156;7.700;2023-05-14T22:00:29;1.60;;;0.82;;
40939;SDS011;26666;50.156;7.700;2023-05-14T22:05:31;0.82;;;0.43;;
40939;SDS011;26666;50.156;7.700;2023-05-14T22:10:33;4.10;;;0.40;;
40939;SDS011;26666;50.156;7.700;2023-05-14T22:15:36;11.65;;;0.73;;
40939;SDS011;26666;50.156;7.700;2023-05-14T22:20:38;0.73;;;0.35;;
40939;SDS011;26666;50.156;7.700;2023-05-14T22:25:40;4.00;;;0.73;;
40939;SDS011;26666;50.156;7.700;2023-05-14T22:30:43;1.05;;;0.40;;
40939;SDS011;26666;50.156;7.700;2023-05-14T22:35:45;1.40;;;0.73;;
40939;SDS011;26666;50.156;7.700;2023-05-14T22:40:47;5.38;;;0.47;;
40939;SDS011;26666;50.156;7.700;2023-05-14T22:45:50;2.47;;;0.73;;
40939;SDS011;26666;50.156;7.700;2023-05-14T22:50:52;0.63;;;0.32;;
40939;SDS011;26666;50.156;7.700;2023-05-14T22:55:53;3.50;;;0.57;;
40939;SDS011;26666;50.156;7.700;2023-05-14T23:00:57;2.92;;;0.80;;
40939;SDS011;26666;50.156;7.700;2023-05-14T23:05:58;5.68;;;0.52;;
40939;SDS011;26666;50.156;7.700;2023-05-14T23:11:00;2.80;;;0.70;;
40939;SDS011;26666;50.156;7.700;2023-05-14T23:16:03;0.63;;;0.63;;
40939;SDS011;26666;50.156;7.700;2023-05-14T23:21:05;2.53;;;0.70;;
40939;SDS011;26666;50.156;7.700;2023-05-14T23:26:07;5.65;;;0.50;;
40939;SDS011;26666;50.156;7.700;2023-05-14T23:31:10;0.47;;;0.47;;
40939;SDS011;26666;50.156;7.700;2023-05-14T23:36:12;0.30;;;0.30;;
40939;SDS011;26666;50.156;7.700;2023-05-14T23:41:13;5.97;;;0.45;;
40939;SDS011;26666;50.156;7.700;2023-05-14T23:46:16;1.38;;;0.40;;
40939;SDS011;26666;50.156;7.700;2023-05-14T23:51:18;5.35;;;0.75;;
40939;SDS011;26666;50.156;7.700;2023-05-14T23:56:20;4.18;;;0.40;;
